06C weather

Schaumburg Regional Airport
Chicago/Schaumburg, Illinois, United States

Public forecast

Using degrees Fahrenheit for public forecast. Weather courtesy of forecast.io.

Closest aviation weather report (METAR) to Schaumburg Regional Airport

Closest report is Dupage Airport, 8.2 nm (15.2 km) SW. Retrieved 2019/10/16 14:52 UTC (44 minutes ago):

KDPA 161452Z 32017G27KT 10SM OVC032 09/02 A2991 RMK AO2 PK WND 31033/1358 SLP130 T00940022 51020

Closest aviation forecast (TAF) to Schaumburg Regional Airport

Closest forecast is Dupage Airport, 8.2 nm (15.2 km) SW. Retrieved 2019/10/16 12:33 UTC (3 hours ago):

TAF KDPA 161130Z 1612/1712 32018G29KT P6SM BKN020 OVC035 FM161800 32016G25KT P6SM OVC035 FM162300 31010KT P6SM BKN035 BKN100